Latest Weather Observations for Mangrove Mountain

IDN60801

Issued at 10:04 pm EDT Friday 27 February 2015 (issued every 30 minutes, with the page automatically refreshed every 10 minutes)

About weather observations | Map of weather stations | Latest weather observations for NSW | Other Formats
Station Details ID: 061375 Name: MANGROVE MOUNTAIN AWS Lat: -33.29 Lon: 151.21 Height: 305.0 m
Data from the previous 72 hours. | See also: Recent months at Mangrove Mountain
Date/Time
EDT
Temp
°C
App
Temp
°C
Dew
Point
Rel
Hum
%
Delta-T
°C
Wind Press
QNH
hPa
Press
MSL
hPa
Rain
since 9 am
mm
Dir
 
Spd
km/h
Gust
km/h
Spd
kts
Gust
kts
27/10:00pm 19.4 21.3 18.6 95 0.5 E 6 11 3 6 - - 0.0
27/09:30pm 19.7 21.6 18.9 95 0.5 E 7 11 4 6 - - 0.0
27/09:00pm 20.0 22.0 19.2 95 0.5 E 7 11 4 6 - - 0.0
27/08:30pm 20.3 22.5 19.1 93 0.8 E 6 11 3 6 - - 0.0
27/08:00pm 20.6 22.5 18.9 90 1.1 E 7 13 4 7 - - 0.0
27/07:30pm 21.3 23.2 18.5 84 1.8 ESE 6 11 3 6 - - 0.0
27/07:00pm 22.4 23.7 18.4 78 2.5 ESE 9 17 5 9 - - 0.0
27/06:30pm 23.3 24.3 18.6 75 3.0 E 11 15 6 8 - - 0.0
27/06:00pm 24.0 25.7 19.3 75 3.0 E 9 17 5 9 - - 0.0
27/05:30pm 24.2 25.0 19.1 73 3.3 ESE 13 20 7 11 - - 0.0
27/05:00pm 24.4 25.9 19.7 75 3.1 E 11 17 6 9 - - 0.0
27/04:30pm 25.4 27.7 19.8 71 3.7 SE 7 13 4 7 - - 0.0
27/04:00pm 25.2 26.7 19.8 72 3.5 ESE 11 17 6 9 - - 0.0
27/03:30pm 25.0 26.6 19.1 70 3.8 SE 9 15 5 8 - - 0.0
27/03:00pm 24.9 26.4 18.8 69 3.9 SE 9 15 5 8 - - 0.0
27/02:30pm 23.9 24.5 17.6 68 4.0 ESE 11 17 6 9 - - 0.0
27/02:00pm 25.6 27.4 20.4 73 3.4 ESE 11 17 6 9 - - 0.0
27/01:30pm 24.8 26.3 19.0 70 3.7 SSE 9 19 5 10 - - 0.0
27/01:00pm 24.0 26.2 19.7 77 2.8 SSE 7 17 4 9 - - 0.0
27/12:30pm 23.3 25.0 18.6 75 3.0 SSE 7 11 4 6 - - 0.0
27/12:00pm 23.7 26.0 19.4 77 2.8 S 6 11 3 6 - - 0.0
27/11:30am 22.0 24.4 19.7 87 1.5 SSW 6 9 3 5 - - 0.0
27/11:00am 21.8 23.6 18.8 83 1.9 WSW 7 13 4 7 - - 0.0
27/10:30am 21.6 23.8 19.2 86 1.5 SW 6 11 3 6 - - 0.0
27/10:00am 21.1 23.6 19.9 93 0.8 WSW 6 9 3 5 - - 0.0
27/09:30am 19.7 22.1 19.7 100 0.0 WSW 6 9 3 5 - - 0.0
27/09:00am 18.7 21.4 18.7 100 0.0 W 2 6 1 3 - - -
27/08:30am 18.6 20.5 18.6 100 0.0 W 6 9 3 5 - - -
27/08:00am 19.0 21.9 19.0 100 0.0 W 2 7 1 4 - - -
27/07:30am 18.6 21.3 18.6 100 0.0 SW 2 4 1 2 - - -
27/07:00am 18.5 20.8 18.5 100 0.0 SSW 4 11 2 6 - - -
27/06:30am 18.5 20.4 18.5 100 0.0 S 6 11 3 6 - - -
27/06:00am 18.4 20.2 18.4 100 0.0 S 6 13 3 7 - - -
27/05:30am 18.4 20.2 18.4 100 0.0 SSW 6 11 3 6 - - -
27/05:00am 18.4 20.1 18.4 100 0.0 S 7 11 4 6 - - -
27/04:30am 18.3 20.1 18.3 100 0.0 SSW 6 11 3 6 - - -
27/04:00am 18.3 20.5 18.3 100 0.0 SW 4 7 2 4 - - -
27/03:30am 18.7 21.1 18.7 100 0.0 SW 4 9 2 5 - - -
27/03:00am 18.9 21.3 18.9 100 0.0 S 4 7 2 4 - - 0.2
27/02:30am 18.9 21.7 18.9 100 0.0 SW 2 6 1 3 - - -
27/02:00am 19.0 22.3 19.0 100 0.0 CALM 0 2 0 1 - - -
27/01:30am 19.3 21.9 19.3 100 0.0 WSW 4 6 2 3 - - -
27/01:00am 19.3 22.3 19.3 100 0.0 WSW 2 6 1 3 - - -
27/12:30am 18.8 21.6 18.8 100 0.0 SW 2 4 1 2 - - -
27/12:00am 18.2 21.0 17.9 98 0.2 CALM 0 6 0 3 - - -
 
Date/Time
EDT
Temp
°C
App
Temp
°C
Dew
Point
Rel
Hum
%
Delta-T
°C
Wind Press
QNH
hPa
Press
MSL
hPa
Rain
since 9 am
mm
Dir
 
Spd
km/h
Gust
km/h
Spd
kts
Gust
kts
26/11:30pm 18.6 21.5 18.3 98 0.2 CALM 0 0 0 0 - - -
26/11:00pm 19.1 21.9 18.8 98 0.2 SSW 2 4 1 2 - - -
26/10:30pm 19.5 22.1 19.2 98 0.2 S 4 6 2 3 - - -
26/10:00pm 19.5 21.6 19.0 97 0.3 E 6 7 3 4 - - -
26/09:30pm 19.8 23.1 19.1 96 0.4 CALM 0 0 0 0 - - -
26/09:00pm 20.0 22.2 19.3 96 0.4 ENE 6 9 3 5 - - -
26/08:30pm 20.1 22.7 19.3 95 0.5 ENE 4 6 2 3 - - -
26/08:00pm 20.4 23.4 19.2 93 0.8 NW 2 4 1 2 - - -
26/07:30pm 20.6 22.8 19.3 92 0.8 ENE 6 11 3 6 - - -
26/07:00pm 21.3 23.8 19.8 91 1.0 ESE 6 11 3 6 - - -
26/06:00pm 22.7 25.7 20.0 85 1.8 SSE 4 7 2 4 - - 0.2
26/05:30pm 23.2 26.3 19.4 79 2.5 SSE 2 6 1 3 - - 0.2
26/05:00pm 23.8 25.6 18.4 72 3.4 SE 6 9 3 5 - - 0.2
26/04:30pm 24.5 27.5 18.4 69 3.9 CALM 0 7 0 4 - - 0.2
26/04:00pm 24.1 26.7 18.3 70 3.7 N 2 6 1 3 - - 0.2
26/03:30pm 22.9 25.7 18.9 78 2.6 W 2 6 1 3 - - 0.2
26/03:00pm 24.3 26.4 18.9 72 3.5 NW 6 9 3 5 - - 0.2
26/02:30pm 24.9 27.2 19.5 72 3.5 WNW 6 9 3 5 - - 0.2
26/02:00pm 24.7 27.6 19.8 74 3.2 ENE 4 7 2 4 - - 0.2
26/01:30pm 23.1 25.6 19.9 82 2.1 W 6 9 3 5 - - 0.2
26/01:00pm 21.7 23.9 19.1 85 1.7 NW 6 11 3 6 - - 0.2
26/12:30pm 21.3 23.3 18.7 85 1.7 WNW 6 9 3 5 - - 0.2
26/12:00pm 21.0 23.8 19.7 92 0.8 W 4 7 2 4 - - 0.2
26/11:30am 20.6 23.6 19.3 92 0.8 WSW 2 7 1 4 - - 0.2
26/11:00am 19.3 21.6 18.5 95 0.5 SSE 4 6 2 3 - - 0.2
26/10:30am 19.4 22.1 19.4 100 0.0 SSW 4 6 2 3 - - 0.2
26/10:00am 18.0 20.8 18.0 100 0.0 CALM 0 2 0 1 - - 0.2
26/09:30am 17.5 19.0 17.5 100 0.0 W 6 9 3 5 - - 0.0
26/09:00am 17.4 18.8 17.4 100 0.0 W 6 9 3 5 - - 6.6
26/08:30am 17.3 19.1 17.3 100 0.0 WSW 4 6 2 3 - - 6.6
26/08:00am 17.1 18.8 17.1 100 0.0 WSW 4 7 2 4 - - 6.6
26/07:30am 17.1 18.8 17.1 100 0.0 WSW 4 6 2 3 - - 6.4
26/07:00am 17.0 18.3 17.0 100 0.0 W 6 9 3 5 - - 6.2
26/06:30am 17.3 19.4 17.3 100 0.0 WSW 2 6 1 3 - - 6.2
26/06:00am 17.2 19.3 17.2 100 0.0 WSW 2 4 1 2 - - 6.2
26/05:30am 17.3 19.8 17.3 100 0.0 CALM 0 0 0 0 - - 6.0
26/05:00am 17.3 19.8 17.3 100 0.0 CALM 0 0 0 0 - - 5.8
26/04:30am 17.3 19.8 17.3 100 0.0 CALM 0 0 0 0 - - 5.6
26/04:00am 17.4 20.0 17.4 100 0.0 CALM 0 0 0 0 - - 5.4
26/03:30am 17.4 20.0 17.4 100 0.0 CALM 0 0 0 0 - - 5.2
26/03:00am 17.5 19.3 17.5 100 0.0 SSW 4 6 2 3 - - 4.8
26/02:30am 17.6 19.9 17.6 100 0.0 S 2 4 1 2 - - 4.8
26/02:00am 17.5 19.7 17.5 100 0.0 S 2 4 1 2 - - 4.6
26/01:30am 17.5 19.3 17.5 100 0.0 S 4 7 2 4 - - 4.6
26/01:00am 17.6 19.5 17.6 100 0.0 S 4 6 2 3 - - 4.4
26/12:30am 17.6 19.5 17.6 100 0.0 SW 4 7 2 4 - - 4.2
26/12:00am 17.6 19.9 17.6 100 0.0 S 2 4 1 2 - - 3.8
 
Date/Time
EDT
Temp
°C
App
Temp
°C
Dew
Point
Rel
Hum
%
Delta-T
°C
Wind Press
QNH
hPa
Press
MSL
hPa
Rain
since 9 am
mm
Dir
 
Spd
km/h
Gust
km/h
Spd
kts
Gust
kts
25/11:30pm 17.7 19.6 17.7 100 0.0 WSW 4 7 2 4 - - 3.6
25/11:00pm 18.1 20.2 18.1 100 0.0 SSW 4 6 2 3 - - 3.4
25/10:30pm 18.1 20.2 18.1 100 0.0 S 4 6 2 3 - - 3.2
25/10:00pm 17.9 20.7 17.9 100 0.0 CALM 0 0 0 0 - - 2.8
25/09:30pm 17.9 19.5 17.9 100 0.0 S 6 9 3 5 - - 2.8
25/09:00pm 17.8 18.7 17.6 99 0.1 SE 9 13 5 7 - - 2.8
25/08:30pm 17.9 19.8 17.7 99 0.1 SSE 4 7 2 4 - - 2.8
25/08:00pm 17.8 20.1 17.6 99 0.1 S 2 6 1 3 - - 2.8
25/07:30pm 17.9 20.3 17.9 100 0.0 SSW 2 7 1 4 - - 2.8
25/07:00pm 18.1 19.6 18.1 100 0.0 SSE 7 19 4 10 - - 2.8
25/06:30pm 18.1 18.9 18.1 100 0.0 SSE 11 20 6 11 - - 2.8
25/06:00pm 18.0 19.1 18.0 100 0.0 SSE 9 17 5 9 - - 2.2
25/05:30pm 18.3 19.4 18.1 99 0.1 S 9 17 5 9 - - 1.8
25/05:00pm 18.4 19.6 18.2 99 0.1 S 9 17 5 9 - - 1.6
25/04:30pm 18.4 18.8 18.1 98 0.2 SSE 13 28 7 15 - - 1.6
25/04:00pm 18.3 19.0 18.0 98 0.2 SSE 11 20 6 11 - - 1.4
25/03:30pm 18.7 18.8 18.4 98 0.2 SSE 15 30 8 16 - - 1.4
25/03:00pm 19.0 18.8 18.5 97 0.3 S 17 28 9 15 - - 1.4
25/02:30pm 19.8 20.7 19.3 97 0.3 SSE 13 24 7 13 - - 1.0
25/02:00pm 20.9 21.7 19.9 94 0.6 SSE 15 30 8 16 - - 0.4
25/01:30pm 24.4 26.7 19.9 76 2.9 SSW 7 13 4 7 - - 0.0
25/01:00pm 23.1 24.1 18.6 76 2.9 S 11 19 6 10 - - 0.0
25/12:30pm 23.7 25.2 18.1 71 3.6 SSW 7 11 4 6 - - 0.0
25/12:00pm 23.9 26.1 19.2 75 3.0 S 6 11 3 6 - - 0.0
25/11:30am 22.1 23.5 17.7 76 2.8 SW 7 11 4 6 - - 0.0
25/11:00am 21.9 23.2 17.5 76 2.7 S 7 15 4 8 - - 0.0
25/10:30am 23.1 25.1 19.1 78 2.6 WSW 7 13 4 7 - - 0.0
25/10:00am 22.2 23.9 18.0 77 2.6 SW 6 11 3 6 - - 0.0
25/09:30am 21.1 22.3 17.3 79 2.4 SW 7 11 4 6 - - 0.0
25/09:00am 20.1 21.6 17.5 85 1.6 WSW 6 9 3 5 - - 1.8
25/08:30am 18.9 20.5 16.9 88 1.2 S 4 6 2 3 - - 1.8
25/08:00am 18.3 20.3 17.0 92 0.8 SW 2 7 1 4 - - 1.8
25/07:30am 17.9 20.3 16.9 94 0.6 CALM 0 0 0 0 - - 1.8
25/07:00am 17.7 19.2 16.6 93 0.7 SW 4 4 2 2 - - 1.8
25/06:30am 17.9 20.3 16.9 94 0.6 CALM 0 6 0 3 - - 1.8
25/06:00am 17.9 19.9 16.9 94 0.6 SW 2 4 1 2 - - 1.8
25/05:30am 17.9 19.9 16.9 94 0.6 SW 2 6 1 3 - - 1.8
25/05:00am 17.9 19.5 16.9 94 0.6 SW 4 9 2 5 - - 1.8
25/04:30am 17.9 20.3 17.1 95 0.5 CALM 0 0 0 0 - - 1.8
25/04:00am 17.9 20.0 17.3 96 0.4 SW 2 6 1 3 - - 1.8
25/03:30am 18.0 20.2 17.4 96 0.4 SSW 2 4 1 2 - - 1.8
25/03:00am 18.1 20.0 17.6 97 0.3 SW 4 7 2 4 - - 1.8
25/02:30am 18.1 20.1 17.8 98 0.2 SW 4 6 2 3 - - 1.8
25/02:00am 18.3 20.4 18.0 98 0.2 WSW 4 9 2 5 - - 1.8
25/01:30am 18.4 20.5 18.2 99 0.1 SW 4 7 2 4 - - 1.8
25/01:00am 18.5 20.6 18.2 98 0.2 SSW 4 9 2 5 - - 1.8
25/12:30am 18.6 20.8 18.3 98 0.2 SSW 4 7 2 4 - - 1.8
25/12:00am 18.8 21.1 18.5 98 0.2 SSW 4 6 2 3 - - 1.6
 
Date/Time
EDT
Temp
°C
App
Temp
°C
Dew
Point
Rel
Hum
%
Delta-T
°C
Wind Press
QNH
hPa
Press
MSL
hPa
Rain
since 9 am
mm
Dir
 
Spd
km/h
Gust
km/h
Spd
kts
Gust
kts
24/11:30pm 18.9 20.8 18.6 98 0.2 S 6 9 3 5 - - 1.6
24/11:00pm 18.9 20.6 18.6 98 0.2 S 7 13 4 7 - - 1.6
24/10:30pm 19.0 21.0 18.7 98 0.2 S 6 13 3 7 - - 1.6

Other Formats:

Comma delimited format used in spreadsheet applications
http://www.bom.gov.au/fwo/IDN60801/IDN60801.95774.axf

JavaScript Object Notation format (JSON) in row-major order
http://www.bom.gov.au/fwo/IDN60801/IDN60801.95774.json